NCAR-RAP Real-Time Weather Data

Output produced by METARs form (10 April 2020  06:38 UTC)
found at http://weather.rap.ucar.edu/surface/
 
KTUP 100553Z AUTO 35014KT 10SM CLR 17/03 A2992 RMK AO2 SLP129 T01670028 10200 20156 402280156 55000
KTUP 100453Z AUTO 33003KT 10SM CLR 16/06 A2991 RMK AO2 SLP127 T01560061
KTUP 100353Z AUTO 31003KT 10SM CLR 16/06 A2992 RMK AO2 SLP129 T01560061
KTUP 100253Z AUTO 00000KT 10SM CLR 17/05 A2992 RMK AO2 SLP129 T01670050 53018
KTUP 100153Z 34006KT 10SM SCT110 18/03 A2990 RMK AO2 SLP122 T01780033
KTUP 100053Z 34006KT 10SM CLR 19/03 A2988 RMK AO2 SLP114 T01890033
KTUP 092353Z 35009KT 10SM CLR 20/03 A2987 RMK AO2 SLP111 T02000033 10228 20200 56004
KTUP 092253Z 31005KT 10SM CLR 22/03 A2987 RMK AO2 SLP112 T02170033
KTUP 092153Z VRB04KT 10SM CLR 22/03 A2986 RMK AO2 SLP109 T02220033
KTUP 092053Z 29007KT 10SM CLR 23/04 A2988 RMK AO2 SLP114 T02280039 58021
KTUP 091953Z 36005KT 10SM CLR 22/05 A2990 RMK AO2 SLP122 T02220050
KTUP 091853Z 00000KT 10SM CLR 22/07 A2993 RMK AO2 SLP131 T02170067
KTUP 091753Z 35008KT 10SM CLR 22/06 A2994 RMK AO2 SLP135 T02170061 10217 20167 58006
KTUP 091653Z 02010G18KT 10SM CLR 19/06 A2995 RMK AO2 SLP139 T01890056
KTUP 091553Z 02013KT 10SM CLR 19/08 A2996 RMK AO2 SLP143 T01890078
KTUP 091453Z 36018KT 10SM CLR 18/09 A2996 RMK AO2 SLP142 T01780089 51033
KTUP 091353Z 36013G24KT 10SM CLR 17/11 A2993 RMK AO2 SLP131 T01670111
KTUP 091253Z 36011KT 10SM FEW016 17/13 A2991 RMK AO2 SLP126 T01670133
KTUP 091153Z 36012KT 10SM SCT016 SCT095 17/14 A2986 RMK AO2 SLP108 60012 70016 T01720144 10228 20172 53034
KTUP 091138Z 36012KT 10SM SCT016 BKN095 17/14 A2985 RMK AO2 T01720144
KTUP 091053Z 35012KT 10SM BKN017 BKN055 18/16 A2982 RMK AO2 SLP095 T01830156
KTUP 090953Z AUTO 00000KT 10SM FEW035 BKN046 BKN110 17/16 A2978 RMK AO2 LTG DSNT SE AND S RAB07E32 SLP080 P0001 T01720156
KTUP 090942Z AUTO 00000KT 10SM VCTS FEW030 SCT040 BKN100 18/16 A2976 RMK AO2 LTG DSNT SE-SW RAB07E32 P0001 T01780161
KTUP 090929Z AUTO VRB04KT 10SM -RA FEW030 BKN080 OVC095 18/16 A2978 RMK AO2 LTG DSNT SE-SW RAB07 P0001 T01780156
KTUP 090914Z AUTO 18009KT 8SM VCTS -RA SCT040 BKN075 OVC100 18/16 A2977 RMK AO2 LTG DSNT ALQDS RAB07 P0000 T01780156
KTUP 090906Z AUTO 00000KT 10SM SCT036 BKN049 OVC110 18/16 A2978 RMK AO2 LTG DSNT ALQDS T01780156
KTUP 090853Z AUTO 00000KT 10SM VCTS BKN036 OVC048 18/16 A2976 RMK AO2 LTG DSNT ALQDS RAB21E46 TSB25E40 SLP073 P0010 60011 T01780156 51010
KTUP 090846Z AUTO 05004KT 10SM VCTS BKN038 OVC046 18/16 A2976 RMK AO2 LTG DSNT ALQDS RAB21E46 TSB25E40 P0010 T01780156
KTUP 090825Z AUTO 05005KT 4SM +TSRA BR SCT035 SCT048 BKN070 18/16 A2975 RMK AO2 LTG DSNT E AND W RAB21 TSB25 P0002 T01780156
KTUP 090753Z AUTO 05003KT 10SM BKN039 OVC055 18/16 A2976 RMK AO2 PK WND 02027/0654 LTG DSNT NE RAE45 SLP072 P0001 T01780156